createdAt,value
2023-02-17T00:00:36.529Z,8.65
2023-02-17T00:03:02.980Z,8.70
2023-02-17T00:05:29.490Z,8.70
2023-02-17T00:07:55.938Z,8.74
2023-02-17T00:10:22.377Z,8.72
2023-02-17T00:12:48.820Z,8.69
2023-02-17T00:15:15.278Z,8.77
2023-02-17T00:17:41.696Z,8.86
2023-02-17T00:20:09.028Z,8.72
2023-02-17T00:22:36.189Z,8.82
2023-02-17T00:25:02.780Z,8.76
2023-02-17T00:27:29.228Z,8.80
2023-02-17T00:29:55.745Z,8.72
2023-02-17T00:32:22.252Z,8.80
2023-02-17T00:34:51.547Z,8.82
2023-02-17T00:37:18.031Z,8.76
2023-02-17T00:39:44.500Z,8.84
2023-02-17T00:42:10.918Z,8.75
2023-02-17T00:44:37.400Z,8.79
2023-02-17T00:47:03.863Z,8.71
2023-02-17T00:49:30.372Z,8.68
2023-02-17T00:52:01.306Z,8.58
2023-02-17T00:54:28.442Z,8.54
2023-02-17T00:56:55.143Z,8.65
2023-02-17T00:59:23.120Z,8.65
2023-02-17T01:01:49.667Z,8.64
2023-02-17T01:04:16.206Z,8.67
2023-02-17T01:06:44.766Z,8.69
2023-02-17T01:09:14.196Z,8.71
2023-02-17T01:11:42.091Z,8.67
2023-02-17T01:14:08.547Z,8.66
2023-02-17T01:16:37.864Z,8.63
2023-02-17T01:19:06.932Z,8.73
2023-02-17T01:21:33.734Z,8.76
2023-02-17T01:24:04.025Z,8.68
2023-02-17T01:26:32.722Z,8.75
2023-02-17T01:29:01.652Z,8.73
2023-02-17T01:31:28.968Z,8.64
2023-02-17T01:34:00.544Z,8.61
2023-02-17T01:36:27.752Z,8.62
2023-02-17T01:38:54.550Z,8.56
2023-02-17T01:41:23.258Z,8.63
2023-02-17T01:44:16.385Z,8.59
2023-02-17T01:46:48.287Z,8.60
2023-02-17T01:49:38.379Z,8.55
2023-02-17T01:52:19.564Z,8.52
2023-02-17T01:54:52.530Z,8.59
2023-02-17T01:57:23.705Z,8.55
2023-02-17T01:59:50.968Z,8.49
2023-02-17T02:02:18.262Z,8.48
2023-02-17T02:04:49.232Z,8.36
2023-02-17T02:07:21.233Z,8.36
2023-02-17T02:09:52.843Z,8.41
2023-02-17T02:12:25.641Z,8.33
2023-02-17T02:14:55.040Z,8.30
2023-02-17T02:17:36.560Z,8.32
2023-02-17T02:20:57.200Z,8.26
2023-02-17T02:24:00.664Z,8.26
2023-02-17T02:27:01.139Z,8.11
2023-02-17T02:29:47.761Z,8.15
2023-02-17T02:32:46.713Z,8.16
2023-02-17T02:35:34.980Z,8.12
2023-02-17T02:38:22.081Z,8.18
2023-02-17T02:41:09.371Z,8.05
2023-02-17T02:43:37.663Z,8.06
2023-02-17T02:46:04.701Z,7.97
2023-02-17T02:48:31.335Z,7.94
2023-02-17T02:51:18.090Z,7.94
2023-02-17T02:53:55.732Z,7.80
2023-02-17T02:56:41.354Z,7.77
2023-02-17T02:59:46.406Z,7.83
2023-02-17T03:02:27.943Z,7.75
2023-02-17T03:05:00.616Z,7.70
2023-02-17T03:07:44.979Z,7.74
2023-02-17T03:10:13.639Z,7.69
2023-02-17T03:12:41.317Z,7.72
2023-02-17T03:15:22.447Z,7.72
2023-02-17T03:17:48.979Z,7.60
2023-02-17T03:20:15.695Z,7.74
2023-02-17T03:22:47.290Z,7.78
2023-02-17T03:25:15.521Z,7.75
2023-02-17T03:27:43.418Z,7.76
2023-02-17T03:30:10.939Z,7.72
2023-02-17T03:32:37.420Z,7.70
2023-02-17T03:35:05.018Z,7.61
2023-02-17T03:37:31.545Z,7.61
2023-02-17T03:39:58.052Z,7.65
2023-02-17T03:42:24.716Z,7.62
2023-02-17T03:44:51.208Z,7.63
2023-02-17T03:47:17.672Z,7.64
2023-02-17T03:49:44.123Z,7.66
2023-02-17T03:52:11.073Z,7.75
2023-02-17T03:54:37.521Z,7.74
2023-02-17T03:57:04.080Z,7.67
2023-02-17T03:59:30.584Z,7.52
2023-02-17T04:01:57.013Z,7.50
2023-02-17T04:04:23.728Z,7.49
2023-02-17T04:06:50.223Z,7.40
2023-02-17T04:09:16.722Z,7.39
2023-02-17T04:11:43.953Z,7.43
2023-02-17T04:14:10.706Z,7.34
2023-02-17T04:16:39.110Z,7.32
2023-02-17T04:19:07.249Z,7.31
2023-02-17T04:21:33.836Z,7.30
2023-02-17T04:24:01.462Z,7.27
2023-02-17T04:26:28.585Z,7.28
2023-02-17T04:28:55.076Z,7.23
2023-02-17T04:31:21.827Z,7.34
2023-02-17T04:33:48.379Z,7.30
2023-02-17T04:36:14.983Z,7.33
2023-02-17T04:38:41.437Z,7.30
2023-02-17T04:41:07.912Z,7.31
2023-02-17T04:43:34.401Z,7.21
2023-02-17T04:46:00.898Z,7.16
2023-02-17T04:48:27.410Z,7.20
2023-02-17T04:50:53.946Z,7.18
2023-02-17T04:53:20.797Z,7.13
2023-02-17T04:55:52.526Z,7.15
2023-02-17T04:58:20.006Z,7.13
2023-02-17T05:00:48.438Z,7.12
2023-02-17T05:03:15.169Z,7.11
2023-02-17T05:05:41.645Z,7.21
2023-02-17T05:08:08.547Z,7.09
2023-02-17T05:10:35.035Z,7.14
2023-02-17T05:13:01.476Z,7.20
2023-02-17T05:15:27.940Z,7.19
2023-02-17T05:17:54.389Z,7.28
2023-02-17T05:20:21.057Z,7.25
2023-02-17T05:22:47.512Z,7.38
2023-02-17T05:25:14.116Z,7.35
2023-02-17T05:27:40.918Z,7.32
2023-02-17T05:30:07.813Z,7.35
2023-02-17T05:32:34.319Z,7.35
2023-02-17T05:35:00.780Z,7.29
2023-02-17T05:37:27.505Z,7.33
2023-02-17T05:39:53.981Z,7.34
2023-02-17T05:42:20.469Z,7.44
2023-02-17T05:44:46.916Z,7.39
2023-02-17T05:47:13.368Z,7.40
2023-02-17T05:49:39.834Z,7.39
2023-02-17T05:52:06.297Z,7.42
2023-02-17T05:54:32.784Z,7.41
2023-02-17T05:56:59.261Z,7.45
2023-02-17T05:59:25.891Z,7.44
2023-02-17T06:01:52.712Z,7.48
2023-02-17T06:04:19.210Z,7.45
2023-02-17T06:06:45.680Z,7.50
2023-02-17T06:09:12.144Z,7.55
2023-02-17T06:11:38.654Z,7.50
2023-02-17T06:14:05.192Z,7.59
2023-02-17T06:16:31.758Z,7.63
2023-02-17T06:19:00.046Z,7.56
2023-02-17T06:21:26.507Z,7.61
2023-02-17T06:23:53.046Z,7.57
2023-02-17T06:26:19.584Z,7.67
2023-02-17T06:28:46.104Z,7.70
2023-02-17T06:31:12.624Z,7.71
2023-02-17T06:33:39.112Z,7.70
2023-02-17T06:36:06.295Z,7.68
2023-02-17T06:38:33.015Z,7.76
2023-02-17T06:40:59.953Z,7.77
2023-02-17T06:43:26.504Z,7.78
2023-02-17T06:45:53.227Z,7.80
2023-02-17T06:48:19.716Z,7.83
2023-02-17T06:50:46.179Z,7.82
2023-02-17T06:53:12.751Z,7.81
2023-02-17T06:55:39.561Z,7.79
2023-02-17T06:58:07.246Z,7.83
2023-02-17T07:00:33.720Z,7.84
2023-02-17T07:03:00.274Z,7.84
2023-02-17T07:05:27.042Z,7.87
2023-02-17T07:07:53.602Z,7.96
2023-02-17T07:10:20.398Z,7.90
2023-02-17T07:12:46.904Z,7.86
2023-02-17T07:15:14.910Z,7.87
2023-02-17T07:17:41.370Z,7.85
2023-02-17T07:20:09.325Z,7.87
2023-02-17T07:22:35.789Z,7.89
2023-02-17T07:25:02.262Z,7.85
2023-02-17T07:27:28.783Z,7.93
2023-02-17T07:29:55.603Z,7.94
2023-02-17T07:32:22.225Z,7.96
2023-02-17T07:34:48.843Z,7.98
2023-02-17T07:37:15.381Z,8.05
2023-02-17T07:39:42.634Z,8.09
2023-02-17T07:42:10.051Z,8.06
2023-02-17T07:44:36.863Z,8.13
2023-02-17T07:47:03.989Z,8.13
2023-02-17T07:49:31.186Z,8.21
2023-02-17T07:51:57.699Z,8.15
2023-02-17T07:54:24.404Z,8.20
2023-02-17T07:56:50.886Z,8.26
2023-02-17T07:59:17.426Z,8.26
2023-02-17T08:01:43.965Z,8.27
2023-02-17T08:04:10.503Z,8.24
2023-02-17T08:06:39.840Z,8.35
2023-02-17T08:09:25.011Z,8.39
2023-02-17T08:12:10.358Z,8.43
2023-02-17T08:14:38.269Z,8.44
2023-02-17T08:17:06.037Z,8.49
2023-02-17T08:19:46.922Z,8.51
2023-02-17T08:22:13.760Z,8.53
2023-02-17T08:24:40.213Z,8.51
2023-02-17T08:27:06.696Z,8.56
2023-02-17T08:29:33.173Z,8.53
2023-02-17T08:31:59.903Z,8.53
2023-02-17T08:34:26.559Z,8.57
2023-02-17T08:36:53.052Z,8.65
2023-02-17T08:39:19.724Z,8.67
2023-02-17T08:41:46.666Z,8.69
2023-02-17T08:44:16.408Z,8.68
2023-02-17T08:46:44.613Z,8.61
2023-02-17T08:49:11.621Z,8.65
2023-02-17T08:51:39.026Z,8.71
2023-02-17T08:54:06.792Z,8.67
2023-02-17T08:56:34.550Z,8.68
2023-02-17T08:59:01.739Z,8.68
2023-02-17T09:01:28.350Z,8.66
2023-02-17T09:03:56.319Z,8.61
2023-02-17T09:06:22.974Z,8.62
2023-02-17T09:08:50.205Z,8.66
2023-02-17T09:11:19.021Z,8.71
2023-02-17T09:13:45.977Z,8.66
2023-02-17T09:16:12.545Z,8.71
2023-02-17T09:18:39.219Z,8.59
2023-02-17T09:21:11.611Z,8.52
2023-02-17T09:23:38.610Z,8.55
2023-02-17T09:26:10.025Z,8.51
2023-02-17T09:28:37.216Z,8.48
2023-02-17T09:31:12.173Z,8.56
2023-02-17T09:33:40.321Z,8.55
2023-02-17T09:36:08.670Z,8.60
2023-02-17T09:38:37.209Z,8.64
2023-02-17T09:41:20.970Z,8.71
2023-02-17T09:43:48.070Z,8.76
2023-02-17T09:46:49.753Z,8.75
2023-02-17T09:49:26.571Z,8.85
2023-02-17T09:52:08.942Z,8.84
2023-02-17T09:54:44.817Z,8.98
2023-02-17T09:57:19.683Z,9.02
2023-02-17T09:59:58.949Z,9.06
2023-02-17T10:02:39.531Z,8.99
2023-02-17T10:05:09.568Z,8.97
2023-02-17T10:07:41.628Z,8.92
2023-02-17T10:10:15.010Z,9.00
2023-02-17T10:12:48.670Z,8.93
2023-02-17T10:15:24.365Z,8.96
2023-02-17T10:17:57.178Z,9.01
2023-02-17T10:20:31.567Z,9.10
2023-02-17T10:23:15.436Z,9.07
2023-02-17T10:25:58.750Z,8.98
2023-02-17T10:28:46.854Z,9.05
2023-02-17T10:31:34.711Z,9.15
2023-02-17T10:34:05.504Z,9.21
2023-02-17T10:36:40.623Z,9.27
2023-02-17T10:39:30.157Z,9.20
2023-02-17T10:41:56.890Z,9.15
2023-02-17T10:44:25.498Z,9.13
2023-02-17T10:46:53.911Z,9.17
2023-02-17T10:49:34.716Z,9.03
2023-02-17T10:52:15.283Z,9.13
2023-02-17T10:54:57.553Z,9.14
2023-02-17T10:57:27.029Z,9.17
2023-02-17T10:59:53.858Z,9.28
2023-02-17T11:02:35.294Z,9.26
2023-02-17T11:05:01.877Z,9.28
2023-02-17T11:07:33.592Z,9.39
2023-02-17T11:10:03.009Z,9.29
2023-02-17T11:12:38.883Z,9.42
2023-02-17T11:15:16.249Z,9.28
2023-02-17T11:17:43.692Z,9.21
2023-02-17T11:20:13.121Z,9.27
2023-02-17T11:22:45.793Z,9.24
2023-02-17T11:25:32.328Z,9.25
2023-02-17T11:28:01.674Z,9.34
2023-02-17T11:30:30.262Z,9.23
2023-02-17T11:32:56.984Z,9.29
2023-02-17T11:35:49.086Z,9.40
2023-02-17T11:38:19.185Z,9.39
2023-02-17T11:40:58.351Z,9.43
2023-02-17T11:43:25.776Z,9.30
2023-02-17T11:46:10.258Z,9.16
2023-02-17T11:49:10.564Z,9.18
2023-02-17T11:51:55.967Z,9.07
2023-02-17T11:54:52.623Z,9.02
2023-02-17T11:57:37.670Z,9.00
2023-02-17T12:00:22.032Z,9.10
2023-02-17T12:03:15.738Z,9.06
2023-02-17T12:05:55.501Z,8.99
2023-02-17T12:08:47.492Z,8.90
2023-02-17T12:11:30.735Z,9.06
2023-02-17T12:14:16.871Z,9.07
2023-02-17T12:16:55.280Z,9.11
2023-02-17T12:19:50.368Z,8.93
2023-02-17T12:22:18.572Z,8.92
2023-02-17T12:25:13.198Z,9.07
2023-02-17T12:28:18.296Z,9.11
2023-02-17T12:30:56.176Z,9.11
2023-02-17T12:33:36.631Z,9.15
2023-02-17T12:36:10.608Z,9.17
2023-02-17T12:38:43.578Z,9.19
2023-02-17T12:41:18.502Z,9.21
2023-02-17T12:43:50.603Z,9.30
2023-02-17T12:46:25.680Z,9.21
2023-02-17T12:49:06.558Z,9.28
2023-02-17T12:51:39.206Z,9.28
2023-02-17T12:54:14.743Z,9.29
2023-02-17T12:57:04.915Z,9.29
2023-02-17T12:59:37.433Z,9.26
2023-02-17T13:02:21.090Z,9.28
2023-02-17T13:04:55.771Z,9.28
2023-02-17T13:07:26.549Z,9.31
2023-02-17T13:09:55.673Z,9.26
2023-02-17T13:12:22.050Z,9.21
2023-02-17T13:14:51.543Z,9.17
2023-02-17T13:17:38.325Z,9.11
2023-02-17T13:20:10.748Z,9.12
2023-02-17T13:22:39.169Z,9.10
2023-02-17T13:25:06.746Z,9.04
2023-02-17T13:27:37.056Z,9.06
2023-02-17T13:30:21.980Z,9.04
2023-02-17T13:33:14.826Z,9.08
2023-02-17T13:35:41.313Z,9.01
2023-02-17T13:38:10.202Z,8.92
2023-02-17T13:40:41.148Z,8.91
2023-02-17T13:43:10.290Z,8.93
2023-02-17T13:45:46.970Z,9.00
2023-02-17T13:48:15.030Z,9.03
2023-02-17T13:50:56.331Z,9.07
2023-02-17T13:53:25.120Z,9.11
2023-02-17T13:55:53.704Z,9.13
2023-02-17T13:58:25.529Z,9.13
2023-02-17T14:00:53.257Z,9.18
2023-02-17T14:03:29.238Z,9.23
2023-02-17T14:05:59.009Z,9.24
2023-02-17T14:08:42.997Z,9.16
2023-02-17T14:11:16.003Z,9.21
2023-02-17T14:13:45.768Z,9.21
2023-02-17T14:16:29.246Z,9.20
2023-02-17T14:19:01.751Z,9.16
2023-02-17T14:21:28.800Z,9.18
2023-02-17T14:23:57.807Z,9.17
2023-02-17T14:26:47.540Z,9.15
2023-02-17T14:29:14.909Z,9.16
2023-02-17T14:31:47.848Z,9.17
2023-02-17T14:34:26.821Z,9.18
2023-02-17T14:36:53.292Z,9.20
2023-02-17T14:39:19.885Z,9.18
2023-02-17T14:41:46.416Z,9.21
2023-02-17T14:44:12.937Z,9.29
2023-02-17T14:46:39.896Z,9.26
2023-02-17T14:49:06.474Z,9.29
2023-02-17T14:51:39.407Z,9.29
2023-02-17T14:54:18.310Z,9.25
2023-02-17T14:57:03.055Z,9.27
2023-02-17T14:59:29.534Z,9.30
2023-02-17T15:01:56.452Z,9.28
2023-02-17T15:04:23.250Z,9.28
2023-02-17T15:06:51.389Z,9.28
2023-02-17T15:09:21.369Z,9.17
2023-02-17T15:11:49.106Z,9.28
2023-02-17T15:14:18.776Z,9.23
2023-02-17T15:16:46.667Z,9.28
2023-02-17T15:19:18.059Z,9.28
2023-02-17T15:21:49.005Z,9.30
2023-02-17T15:24:30.531Z,9.31
2023-02-17T15:26:58.791Z,9.29
2023-02-17T15:29:27.361Z,9.29
2023-02-17T15:31:55.704Z,9.32
2023-02-17T15:34:29.370Z,9.30
2023-02-17T15:36:55.788Z,9.24
2023-02-17T15:39:22.365Z,9.23
2023-02-17T15:41:50.233Z,9.27
2023-02-17T15:44:22.638Z,9.29
2023-02-17T15:46:54.699Z,9.27
2023-02-17T15:49:22.212Z,9.24
2023-02-17T15:51:48.643Z,9.29
2023-02-17T15:54:19.069Z,9.25
2023-02-17T15:56:49.388Z,9.23
2023-02-17T15:59:19.093Z,9.24
2023-02-17T16:01:45.632Z,9.23
2023-02-17T16:04:14.491Z,9.21
2023-02-17T16:06:41.461Z,9.21
2023-02-17T16:09:08.656Z,9.17
2023-02-17T16:11:39.846Z,9.17
2023-02-17T16:14:06.414Z,9.20
2023-02-17T16:16:33.628Z,9.17
2023-02-17T16:19:00.885Z,9.16
2023-02-17T16:21:27.883Z,9.16
2023-02-17T16:23:59.503Z,9.17
2023-02-17T16:26:34.170Z,9.14
2023-02-17T16:29:03.312Z,9.13
2023-02-17T16:31:32.380Z,9.12
2023-02-17T16:34:00.298Z,9.17
2023-02-17T16:36:31.174Z,9.16
2023-02-17T16:38:58.324Z,9.15
2023-02-17T16:41:24.767Z,9.13
2023-02-17T16:43:51.203Z,9.15
2023-02-17T16:46:30.110Z,9.11
2023-02-17T16:49:00.906Z,9.17
2023-02-17T16:51:27.726Z,9.20
2023-02-17T16:53:54.272Z,9.17
2023-02-17T16:56:38.130Z,9.23
2023-02-17T16:59:04.989Z,9.21
2023-02-17T17:01:32.241Z,9.23
2023-02-17T17:03:58.688Z,9.21
2023-02-17T17:06:28.853Z,9.23
2023-02-17T17:08:55.704Z,9.25
2023-02-17T17:11:25.137Z,9.26
2023-02-17T17:13:52.521Z,9.31
2023-02-17T17:16:22.858Z,9.32
2023-02-17T17:18:49.336Z,9.33
2023-02-17T17:21:18.122Z,9.27
2023-02-17T17:23:46.325Z,9.32
2023-02-17T17:26:23.002Z,9.30
2023-02-17T17:28:50.162Z,9.37
2023-02-17T17:31:19.624Z,9.31
2023-02-17T17:33:47.357Z,9.25
2023-02-17T17:36:26.518Z,9.30
2023-02-17T17:38:53.953Z,9.34
2023-02-17T17:41:21.033Z,9.31
2023-02-17T17:43:48.896Z,9.37
2023-02-17T17:46:18.868Z,9.38
2023-02-17T17:48:45.960Z,9.38
2023-02-17T17:51:15.665Z,9.36
2023-02-17T17:53:43.165Z,9.40
2023-02-17T17:56:16.241Z,9.41
2023-02-17T17:58:43.309Z,9.43
2023-02-17T18:01:11.313Z,9.45
2023-02-17T18:03:38.636Z,9.49
2023-02-17T18:06:07.863Z,9.48
2023-02-17T18:08:35.600Z,9.45
2023-02-17T18:11:02.674Z,9.50
2023-02-17T18:13:29.238Z,9.49
2023-02-17T18:15:55.810Z,9.49
2023-02-17T18:18:23.241Z,9.49
2023-02-17T18:20:49.800Z,9.48
2023-02-17T18:23:16.296Z,9.54
2023-02-17T18:25:42.864Z,9.55
2023-02-17T18:28:09.355Z,9.56
2023-02-17T18:30:35.873Z,9.56
2023-02-17T18:33:02.471Z,9.58
2023-02-17T18:35:29.017Z,9.66
2023-02-17T18:37:55.543Z,9.68
2023-02-17T18:40:22.241Z,9.74
2023-02-17T18:42:48.708Z,9.73
2023-02-17T18:45:16.522Z,9.69
2023-02-17T18:47:43.402Z,9.67
2023-02-17T18:50:10.495Z,9.75
2023-02-17T18:52:39.435Z,9.76
2023-02-17T18:55:06.963Z,9.74
2023-02-17T18:57:34.428Z,9.78
2023-02-17T19:00:01.263Z,9.79
2023-02-17T19:02:28.106Z,9.80
2023-02-17T19:04:55.832Z,9.78
2023-02-17T19:07:23.156Z,9.85
2023-02-17T19:09:53.516Z,9.85
2023-02-17T19:12:20.220Z,9.76
2023-02-17T19:14:48.314Z,9.78
2023-02-17T19:17:18.230Z,9.75
2023-02-17T19:19:44.902Z,9.85
2023-02-17T19:22:11.373Z,9.79
2023-02-17T19:24:39.923Z,9.87
2023-02-17T19:27:06.983Z,9.82
2023-02-17T19:29:34.085Z,9.81
2023-02-17T19:32:03.106Z,9.79
2023-02-17T19:34:31.211Z,9.80
2023-02-17T19:36:57.718Z,9.80
2023-02-17T19:39:24.242Z,9.86
2023-02-17T19:41:50.734Z,9.83
2023-02-17T19:44:17.455Z,9.83
2023-02-17T19:46:43.945Z,9.88
2023-02-17T19:49:10.675Z,9.83
2023-02-17T19:51:37.129Z,9.85
2023-02-17T19:54:03.960Z,9.82
2023-02-17T19:56:32.634Z,9.77
2023-02-17T19:58:59.869Z,9.86
2023-02-17T20:01:29.045Z,9.86
2023-02-17T20:03:56.814Z,9.78
2023-02-17T20:06:26.710Z,9.81
2023-02-17T20:08:56.115Z,9.84
2023-02-17T20:11:22.634Z,9.83
2023-02-17T20:13:50.002Z,9.82
2023-02-17T20:16:17.349Z,9.81
2023-02-17T20:18:46.615Z,9.79
2023-02-17T20:21:16.050Z,9.75
2023-02-17T20:23:43.043Z,9.75
2023-02-17T20:26:12.736Z,9.74
2023-02-17T20:28:39.829Z,9.72
2023-02-17T20:31:07.303Z,9.66
2023-02-17T20:33:34.005Z,9.59
2023-02-17T20:36:00.766Z,9.70
2023-02-17T20:38:27.722Z,9.65
2023-02-17T20:40:54.425Z,9.57
2023-02-17T20:43:21.325Z,9.57
2023-02-17T20:45:49.505Z,9.56
2023-02-17T20:48:16.783Z,9.63
2023-02-17T20:50:44.123Z,9.61
2023-02-17T20:53:11.011Z,9.60
2023-02-17T20:55:37.743Z,9.60
2023-02-17T20:58:04.260Z,9.61
2023-02-17T21:00:31.168Z,9.67
2023-02-17T21:03:00.712Z,9.69
2023-02-17T21:05:27.212Z,9.74
2023-02-17T21:07:55.715Z,9.73
2023-02-17T21:10:25.688Z,9.72
2023-02-17T21:12:52.239Z,9.61
2023-02-17T21:15:22.348Z,9.59
2023-02-17T21:17:51.392Z,9.64
2023-02-17T21:20:20.591Z,9.67
2023-02-17T21:22:47.078Z,9.61
2023-02-17T21:25:16.103Z,9.69
2023-02-17T21:27:42.699Z,9.68
2023-02-17T21:30:10.183Z,9.69
2023-02-17T21:32:41.845Z,9.68
2023-02-17T21:35:10.440Z,9.68
2023-02-17T21:37:38.879Z,9.68
2023-02-17T21:40:10.052Z,9.70
2023-02-17T21:42:59.022Z,9.71
2023-02-17T21:45:25.661Z,9.63
2023-02-17T21:47:52.277Z,9.68
2023-02-17T21:50:19.251Z,9.74
2023-02-17T21:52:45.709Z,9.76
2023-02-17T21:55:12.200Z,9.72
2023-02-17T21:57:38.666Z,9.75
2023-02-17T22:00:06.039Z,9.77
2023-02-17T22:02:39.065Z,9.74
2023-02-17T22:05:06.662Z,9.79
2023-02-17T22:07:33.475Z,9.82
2023-02-17T22:10:00.353Z,9.79
2023-02-17T22:12:27.438Z,9.82
2023-02-17T22:14:53.908Z,9.80
2023-02-17T22:17:20.621Z,9.79
2023-02-17T22:19:47.123Z,9.81
2023-02-17T22:22:13.559Z,9.78
2023-02-17T22:24:40.052Z,9.86
2023-02-17T22:27:06.779Z,9.91
2023-02-17T22:29:33.255Z,9.86
2023-02-17T22:31:59.768Z,9.92
2023-02-17T22:34:27.593Z,9.89
2023-02-17T22:36:54.494Z,9.90
2023-02-17T22:39:20.942Z,9.89
2023-02-17T22:41:47.451Z,9.95
2023-02-17T22:44:14.043Z,9.96
2023-02-17T22:46:40.588Z,9.92
2023-02-17T22:49:07.057Z,9.95
2023-02-17T22:51:38.541Z,9.89
2023-02-17T22:54:05.944Z,9.97
2023-02-17T22:56:33.055Z,9.96
2023-02-17T22:59:04.266Z,9.96
2023-02-17T23:01:33.970Z,9.97
2023-02-17T23:04:01.450Z,9.89
2023-02-17T23:06:36.830Z,9.87
2023-02-17T23:09:04.578Z,9.87
2023-02-17T23:11:50.110Z,9.88
2023-02-17T23:14:23.184Z,9.83
2023-02-17T23:16:50.925Z,9.75
2023-02-17T23:19:19.642Z,9.71
2023-02-17T23:21:49.391Z,9.75
2023-02-17T23:24:17.305Z,9.72
2023-02-17T23:26:44.812Z,9.70
2023-02-17T23:29:11.541Z,9.72
2023-02-17T23:31:38.997Z,9.65
2023-02-17T23:34:06.688Z,9.72
2023-02-17T23:36:33.898Z,9.63
2023-02-17T23:39:01.309Z,9.61
2023-02-17T23:41:28.280Z,9.55
2023-02-17T23:43:54.742Z,9.56
2023-02-17T23:46:21.341Z,9.55
2023-02-17T23:48:48.047Z,9.49
2023-02-17T23:51:16.714Z,9.50
2023-02-17T23:53:43.262Z,9.49
2023-02-17T23:56:15.669Z,9.49
2023-02-17T23:58:42.518Z,9.46
